sensor_id;sensor_type;location;lat;lon;timestamp;temperature;humidity
41884;DHT22;27566;50.930;5.328;2024-03-08T00:00:24;6.50;68.60
41884;DHT22;27566;50.930;5.328;2024-03-08T00:02:50;6.70;67.50
41884;DHT22;27566;50.930;5.328;2024-03-08T00:05:19;6.60;67.50
41884;DHT22;27566;50.930;5.328;2024-03-08T00:07:46;6.60;67.70
41884;DHT22;27566;50.930;5.328;2024-03-08T00:10:12;6.60;67.30
41884;DHT22;27566;50.930;5.328;2024-03-08T00:12:40;6.60;68.00
41884;DHT22;27566;50.930;5.328;2024-03-08T00:15:13;6.50;67.50
41884;DHT22;27566;50.930;5.328;2024-03-08T00:17:43;6.50;67.70
41884;DHT22;27566;50.930;5.328;2024-03-08T00:20:10;6.40;67.60
41884;DHT22;27566;50.930;5.328;2024-03-08T00:22:37;6.50;68.50
41884;DHT22;27566;50.930;5.328;2024-03-08T00:25:04;6.10;68.50
41884;DHT22;27566;50.930;5.328;2024-03-08T00:27:31;6.30;68.00
41884;DHT22;27566;50.930;5.328;2024-03-08T00:30:03;6.30;68.00
41884;DHT22;27566;50.930;5.328;2024-03-08T00:32:29;6.10;68.80
41884;DHT22;27566;50.930;5.328;2024-03-08T00:34:56;6.30;67.90
41884;DHT22;27566;50.930;5.328;2024-03-08T00:37:22;6.30;67.90
41884;DHT22;27566;50.930;5.328;2024-03-08T00:39:48;6.50;68.60
41884;DHT22;27566;50.930;5.328;2024-03-08T00:42:18;6.30;67.70
41884;DHT22;27566;50.930;5.328;2024-03-08T00:44:44;6.00;68.30
41884;DHT22;27566;50.930;5.328;2024-03-08T00:47:10;6.20;67.70
41884;DHT22;27566;50.930;5.328;2024-03-08T00:49:37;6.20;67.80
41884;DHT22;27566;50.930;5.328;2024-03-08T00:52:06;6.20;67.80
41884;DHT22;27566;50.930;5.328;2024-03-08T00:54:33;6.20;67.60
41884;DHT22;27566;50.930;5.328;2024-03-08T00:56:59;6.10;67.80
41884;DHT22;27566;50.930;5.328;2024-03-08T00:59:28;6.10;67.90
41884;DHT22;27566;50.930;5.328;2024-03-08T01:01:55;5.90;69.10
41884;DHT22;27566;50.930;5.328;2024-03-08T01:04:22;6.00;68.20
41884;DHT22;27566;50.930;5.328;2024-03-08T01:06:48;5.70;69.10
41884;DHT22;27566;50.930;5.328;2024-03-08T01:09:14;5.90;68.20
41884;DHT22;27566;50.930;5.328;2024-03-08T01:11:43;5.70;69.30
41884;DHT22;27566;50.930;5.328;2024-03-08T01:14:09;5.90;68.60
41884;DHT22;27566;50.930;5.328;2024-03-08T01:16:35;5.90;68.70
41884;DHT22;27566;50.930;5.328;2024-03-08T01:19:00;5.90;68.50
41884;DHT22;27566;50.930;5.328;2024-03-08T01:21:27;5.90;68.70
41884;DHT22;27566;50.930;5.328;2024-03-08T01:23:53;5.80;68.70
41884;DHT22;27566;50.930;5.328;2024-03-08T01:26:19;5.80;68.70
41884;DHT22;27566;50.930;5.328;2024-03-08T01:28:45;5.80;68.70
41884;DHT22;27566;50.930;5.328;2024-03-08T01:31:10;5.80;68.70
41884;DHT22;27566;50.930;5.328;2024-03-08T01:33:37;5.80;68.90
41884;DHT22;27566;50.930;5.328;2024-03-08T01:36:03;5.80;68.80
41884;DHT22;27566;50.930;5.328;2024-03-08T01:38:29;5.80;68.80
41884;DHT22;27566;50.930;5.328;2024-03-08T01:40:55;5.70;68.80
41884;DHT22;27566;50.930;5.328;2024-03-08T01:43:28;5.70;68.90
41884;DHT22;27566;50.930;5.328;2024-03-08T01:46:00;5.60;69.20
41884;DHT22;27566;50.930;5.328;2024-03-08T01:48:30;5.60;69.30
41884;DHT22;27566;50.930;5.328;2024-03-08T01:50:57;5.60;69.10
41884;DHT22;27566;50.930;5.328;2024-03-08T01:53:27;5.60;69.40
41884;DHT22;27566;50.930;5.328;2024-03-08T01:55:56;5.30;70.50
41884;DHT22;27566;50.930;5.328;2024-03-08T01:58:23;5.50;69.50
41884;DHT22;27566;50.930;5.328;2024-03-08T02:00:50;5.50;69.50
41884;DHT22;27566;50.930;5.328;2024-03-08T02:03:16;5.50;69.70
41884;DHT22;27566;50.930;5.328;2024-03-08T02:05:43;5.50;69.70
41884;DHT22;27566;50.930;5.328;2024-03-08T02:08:09;5.40;69.70
41884;DHT22;27566;50.930;5.328;2024-03-08T02:10:44;5.50;69.60
41884;DHT22;27566;50.930;5.328;2024-03-08T02:13:11;5.40;69.90
41884;DHT22;27566;50.930;5.328;2024-03-08T02:15:56;5.30;70.70
41884;DHT22;27566;50.930;5.328;2024-03-08T02:18:23;5.40;69.70
41884;DHT22;27566;50.930;5.328;2024-03-08T02:20:55;5.40;70.00
41884;DHT22;27566;50.930;5.328;2024-03-08T02:23:23;5.30;70.00
41884;DHT22;27566;50.930;5.328;2024-03-08T02:25:50;5.30;69.90
41884;DHT22;27566;50.930;5.328;2024-03-08T02:28:16;5.30;70.30
41884;DHT22;27566;50.930;5.328;2024-03-08T02:30:50;5.40;71.40
41884;DHT22;27566;50.930;5.328;2024-03-08T02:33:18;5.30;70.00
41884;DHT22;27566;50.930;5.328;2024-03-08T02:35:44;5.30;69.90
41884;DHT22;27566;50.930;5.328;2024-03-08T02:38:17;5.30;70.20
41884;DHT22;27566;50.930;5.328;2024-03-08T02:40:45;5.10;71.60
41884;DHT22;27566;50.930;5.328;2024-03-08T02:43:12;5.20;70.10
41884;DHT22;27566;50.930;5.328;2024-03-08T02:48:05;5.20;71.40
41884;DHT22;27566;50.930;5.328;2024-03-08T02:50:34;5.10;71.40
41884;DHT22;27566;50.930;5.328;2024-03-08T02:53:01;5.10;70.60
41884;DHT22;27566;50.930;5.328;2024-03-08T02:55:27;5.10;70.60
41884;DHT22;27566;50.930;5.328;2024-03-08T02:57:53;5.10;70.80
41884;DHT22;27566;50.930;5.328;2024-03-08T03:00:23;5.10;70.90
41884;DHT22;27566;50.930;5.328;2024-03-08T03:02:50;5.20;70.70
41884;DHT22;27566;50.930;5.328;2024-03-08T03:05:25;5.10;70.30
41884;DHT22;27566;50.930;5.328;2024-03-08T03:07:51;4.90;71.80
41884;DHT22;27566;50.930;5.328;2024-03-08T03:10:18;5.10;70.70
41884;DHT22;27566;50.930;5.328;2024-03-08T03:12:45;5.10;70.60
41884;DHT22;27566;50.930;5.328;2024-03-08T03:15:12;5.10;70.70
41884;DHT22;27566;50.930;5.328;2024-03-08T03:17:39;5.10;70.80
41884;DHT22;27566;50.930;5.328;2024-03-08T03:20:08;5.10;70.80
41884;DHT22;27566;50.930;5.328;2024-03-08T03:22:40;5.00;70.80
41884;DHT22;27566;50.930;5.328;2024-03-08T03:25:10;5.00;71.00
41884;DHT22;27566;50.930;5.328;2024-03-08T03:27:38;5.00;72.50
41884;DHT22;27566;50.930;5.328;2024-03-08T03:30:06;5.00;70.80
41884;DHT22;27566;50.930;5.328;2024-03-08T03:32:50;5.00;70.80
41884;DHT22;27566;50.930;5.328;2024-03-08T03:35:21;5.00;70.70
41884;DHT22;27566;50.930;5.328;2024-03-08T03:37:48;5.00;71.10
41884;DHT22;27566;50.930;5.328;2024-03-08T03:40:30;5.00;72.30
41884;DHT22;27566;50.930;5.328;2024-03-08T03:42:57;5.00;71.20
41884;DHT22;27566;50.930;5.328;2024-03-08T03:45:23;5.00;71.20
41884;DHT22;27566;50.930;5.328;2024-03-08T03:47:50;5.00;71.20
41884;DHT22;27566;50.930;5.328;2024-03-08T03:50:17;4.90;71.10
41884;DHT22;27566;50.930;5.328;2024-03-08T03:52:45;4.90;71.10
41884;DHT22;27566;50.930;5.328;2024-03-08T03:55:12;4.80;71.40
41884;DHT22;27566;50.930;5.328;2024-03-08T03:57:39;4.90;73.10
41884;DHT22;27566;50.930;5.328;2024-03-08T04:00:06;4.80;71.40
41884;DHT22;27566;50.930;5.328;2024-03-08T04:02:37;4.80;71.70
41884;DHT22;27566;50.930;5.328;2024-03-08T04:05:05;4.80;71.80
41884;DHT22;27566;50.930;5.328;2024-03-08T04:07:32;4.80;71.40
41884;DHT22;27566;50.930;5.328;2024-03-08T04:09:58;4.80;71.70
41884;DHT22;27566;50.930;5.328;2024-03-08T04:12:24;4.80;71.50
41884;DHT22;27566;50.930;5.328;2024-03-08T04:14:50;4.80;72.10
41884;DHT22;27566;50.930;5.328;2024-03-08T04:17:16;4.80;72.00
41884;DHT22;27566;50.930;5.328;2024-03-08T04:19:43;4.80;71.40
41884;DHT22;27566;50.930;5.328;2024-03-08T04:22:10;4.80;71.40
41884;DHT22;27566;50.930;5.328;2024-03-08T04:24:35;4.80;71.20
41884;DHT22;27566;50.930;5.328;2024-03-08T04:31:54;4.70;71.20
41884;DHT22;27566;50.930;5.328;2024-03-08T04:34:21;4.60;72.20
41884;DHT22;27566;50.930;5.328;2024-03-08T04:36:48;4.60;72.20
41884;DHT22;27566;50.930;5.328;2024-03-08T04:39:14;4.60;72.60
41884;DHT22;27566;50.930;5.328;2024-03-08T04:41:44;4.50;72.30
41884;DHT22;27566;50.930;5.328;2024-03-08T04:44:11;4.70;74.80
41884;DHT22;27566;50.930;5.328;2024-03-08T04:46:38;4.50;73.10
41884;DHT22;27566;50.930;5.328;2024-03-08T04:49:04;4.60;73.00
41884;DHT22;27566;50.930;5.328;2024-03-08T04:51:30;4.60;74.10
41884;DHT22;27566;50.930;5.328;2024-03-08T04:53:56;4.40;74.40
41884;DHT22;27566;50.930;5.328;2024-03-08T04:58:48;4.50;72.20
41884;DHT22;27566;50.930;5.328;2024-03-08T05:01:15;4.50;72.70
41884;DHT22;27566;50.930;5.328;2024-03-08T05:03:41;4.50;72.90
41884;DHT22;27566;50.930;5.328;2024-03-08T05:06:07;4.50;72.90
41884;DHT22;27566;50.930;5.328;2024-03-08T05:11:00;4.40;72.50
41884;DHT22;27566;50.930;5.328;2024-03-08T05:13:30;4.40;73.30
41884;DHT22;27566;50.930;5.328;2024-03-08T05:18:25;4.40;73.00
41884;DHT22;27566;50.930;5.328;2024-03-08T05:20:54;4.40;73.50
41884;DHT22;27566;50.930;5.328;2024-03-08T05:23:20;4.70;75.70
41884;DHT22;27566;50.930;5.328;2024-03-08T05:25:47;4.30;73.60
41884;DHT22;27566;50.930;5.328;2024-03-08T05:28:13;4.30;73.70
41884;DHT22;27566;50.930;5.328;2024-03-08T05:30:40;4.30;74.40
41884;DHT22;27566;50.930;5.328;2024-03-08T05:33:06;4.30;73.80
41884;DHT22;27566;50.930;5.328;2024-03-08T05:35:36;4.20;75.10
41884;DHT22;27566;50.930;5.328;2024-03-08T05:38:02;4.40;73.40
41884;DHT22;27566;50.930;5.328;2024-03-08T05:40:28;4.40;73.30
41884;DHT22;27566;50.930;5.328;2024-03-08T05:42:58;4.40;73.40
41884;DHT22;27566;50.930;5.328;2024-03-08T05:47:52;4.40;72.80
41884;DHT22;27566;50.930;5.328;2024-03-08T05:50:18;4.40;73.20
41884;DHT22;27566;50.930;5.328;2024-03-08T05:55:21;4.40;75.10
41884;DHT22;27566;50.930;5.328;2024-03-08T05:57:48;4.50;75.10
41884;DHT22;27566;50.930;5.328;2024-03-08T06:00:14;4.40;73.30
41884;DHT22;27566;50.930;5.328;2024-03-08T06:02:41;4.30;74.80
41884;DHT22;27566;50.930;5.328;2024-03-08T06:05:09;4.30;73.10
41884;DHT22;27566;50.930;5.328;2024-03-08T06:07:36;4.40;73.40
41884;DHT22;27566;50.930;5.328;2024-03-08T06:12:29;4.30;72.60
41884;DHT22;27566;50.930;5.328;2024-03-08T06:17:24;4.40;75.10
41884;DHT22;27566;50.930;5.328;2024-03-08T06:19:51;4.40;73.50
41884;DHT22;27566;50.930;5.328;2024-03-08T06:22:18;4.40;73.20
41884;DHT22;27566;50.930;5.328;2024-03-08T06:27:12;4.20;74.50
41884;DHT22;27566;50.930;5.328;2024-03-08T06:32:05;4.80;75.10
41884;DHT22;27566;50.930;5.328;2024-03-08T06:34:33;4.50;73.40
41884;DHT22;27566;50.930;5.328;2024-03-08T06:37:00;4.50;73.10
41884;DHT22;27566;50.930;5.328;2024-03-08T06:41:57;4.70;72.00
41884;DHT22;27566;50.930;5.328;2024-03-08T06:44:23;4.90;73.50
41884;DHT22;27566;50.930;5.328;2024-03-08T06:49:15;4.90;71.40
41884;DHT22;27566;50.930;5.328;2024-03-08T06:54:08;4.90;70.90
41884;DHT22;27566;50.930;5.328;2024-03-08T06:56:36;5.00;71.30
41884;DHT22;27566;50.930;5.328;2024-03-08T07:04:08;4.70;71.70
41884;DHT22;27566;50.930;5.328;2024-03-08T07:06:33;5.10;70.80
41884;DHT22;27566;50.930;5.328;2024-03-08T07:11:26;5.20;69.80
41884;DHT22;27566;50.930;5.328;2024-03-08T07:16:19;5.30;69.20
41884;DHT22;27566;50.930;5.328;2024-03-08T07:18:47;5.40;69.60
41884;DHT22;27566;50.930;5.328;2024-03-08T07:21:13;5.40;69.40
41884;DHT22;27566;50.930;5.328;2024-03-08T07:23:39;5.50;69.50
41884;DHT22;27566;50.930;5.328;2024-03-08T07:26:23;5.70;70.00
41884;DHT22;27566;50.930;5.328;2024-03-08T07:28:49;5.60;68.70
41884;DHT22;27566;50.930;5.328;2024-03-08T07:31:15;5.70;68.30
41884;DHT22;27566;50.930;5.328;2024-03-08T07:34:13;5.70;68.30
41884;DHT22;27566;50.930;5.328;2024-03-08T07:36:39;5.70;68.40
41884;DHT22;27566;50.930;5.328;2024-03-08T07:39:05;5.90;69.10
41884;DHT22;27566;50.930;5.328;2024-03-08T07:41:40;5.80;67.90
41884;DHT22;27566;50.930;5.328;2024-03-08T07:44:07;5.90;67.50
41884;DHT22;27566;50.930;5.328;2024-03-08T07:46:33;6.00;67.00
41884;DHT22;27566;50.930;5.328;2024-03-08T07:49:03;6.00;67.00
41884;DHT22;27566;50.930;5.328;2024-03-08T07:51:29;6.10;66.90
41884;DHT22;27566;50.930;5.328;2024-03-08T07:53:56;6.30;67.30
41884;DHT22;27566;50.930;5.328;2024-03-08T07:56:22;6.20;66.20
41884;DHT22;27566;50.930;5.328;2024-03-08T07:58:48;6.30;66.10
41884;DHT22;27566;50.930;5.328;2024-03-08T08:01:18;6.30;66.00
41884;DHT22;27566;50.930;5.328;2024-03-08T08:03:45;6.30;66.50
41884;DHT22;27566;50.930;5.328;2024-03-08T08:06:11;6.40;65.70
41884;DHT22;27566;50.930;5.328;2024-03-08T08:08:44;6.40;65.50
41884;DHT22;27566;50.930;5.328;2024-03-08T08:11:11;6.60;65.00
41884;DHT22;27566;50.930;5.328;2024-03-08T08:13:41;6.60;64.80
41884;DHT22;27566;50.930;5.328;2024-03-08T08:16:09;6.70;64.60
41884;DHT22;27566;50.930;5.328;2024-03-08T08:18:36;6.70;63.90
41884;DHT22;27566;50.930;5.328;2024-03-08T08:21:05;6.60;64.40
41884;DHT22;27566;50.930;5.328;2024-03-08T08:23:32;6.80;64.00
41884;DHT22;27566;50.930;5.328;2024-03-08T08:25:59;7.30;63.80
41884;DHT22;27566;50.930;5.328;2024-03-08T08:28:28;6.90;63.20
41884;DHT22;27566;50.930;5.328;2024-03-08T08:30:55;7.00;62.80
41884;DHT22;27566;50.930;5.328;2024-03-08T08:33:21;7.00;63.00
41884;DHT22;27566;50.930;5.328;2024-03-08T08:35:47;7.10;62.90
41884;DHT22;27566;50.930;5.328;2024-03-08T08:38:13;7.10;62.70
41884;DHT22;27566;50.930;5.328;2024-03-08T08:40:39;7.20;63.30
41884;DHT22;27566;50.930;5.328;2024-03-08T08:43:07;7.10;62.50
41884;DHT22;27566;50.930;5.328;2024-03-08T08:47:59;7.40;61.40
41884;DHT22;27566;50.930;5.328;2024-03-08T08:50:26;7.50;61.50
41884;DHT22;27566;50.930;5.328;2024-03-08T08:52:52;7.50;61.60
41884;DHT22;27566;50.930;5.328;2024-03-08T08:55:18;7.60;60.80
41884;DHT22;27566;50.930;5.328;2024-03-08T08:57:49;7.70;60.60
41884;DHT22;27566;50.930;5.328;2024-03-08T09:00:16;7.80;60.40
41884;DHT22;27566;50.930;5.328;2024-03-08T09:02:44;7.80;60.30
41884;DHT22;27566;50.930;5.328;2024-03-08T09:05:10;7.90;60.00
41884;DHT22;27566;50.930;5.328;2024-03-08T09:07:37;7.90;59.20
41884;DHT22;27566;50.930;5.328;2024-03-08T09:10:04;8.00;58.60
41884;DHT22;27566;50.930;5.328;2024-03-08T09:12:30;8.00;58.60
41884;DHT22;27566;50.930;5.328;2024-03-08T09:14:58;8.00;58.90
41884;DHT22;27566;50.930;5.328;2024-03-08T09:17:25;8.00;59.70
41884;DHT22;27566;50.930;5.328;2024-03-08T09:19:51;8.00;59.10
41884;DHT22;27566;50.930;5.328;2024-03-08T09:22:17;8.00;59.10
41884;DHT22;27566;50.930;5.328;2024-03-08T09:24:43;8.10;59.00
41884;DHT22;27566;50.930;5.328;2024-03-08T09:27:09;8.40;58.30
41884;DHT22;27566;50.930;5.328;2024-03-08T09:29:36;8.20;57.90
41884;DHT22;27566;50.930;5.328;2024-03-08T09:32:02;8.30;58.00
41884;DHT22;27566;50.930;5.328;2024-03-08T09:34:28;8.40;58.00
41884;DHT22;27566;50.930;5.328;2024-03-08T09:36:55;8.50;57.40
41884;DHT22;27566;50.930;5.328;2024-03-08T09:39:22;8.50;57.80
41884;DHT22;27566;50.930;5.328;2024-03-08T09:41:49;8.60;56.80
41884;DHT22;27566;50.930;5.328;2024-03-08T09:44:15;8.60;56.70
41884;DHT22;27566;50.930;5.328;2024-03-08T09:46:42;8.60;56.90
41884;DHT22;27566;50.930;5.328;2024-03-08T09:49:09;8.70;56.30
41884;DHT22;27566;50.930;5.328;2024-03-08T09:51:37;8.80;56.30
41884;DHT22;27566;50.930;5.328;2024-03-08T09:54:06;8.80;56.00
41884;DHT22;27566;50.930;5.328;2024-03-08T09:56:36;8.90;56.10
41884;DHT22;27566;50.930;5.328;2024-03-08T09:59:04;9.10;56.00
41884;DHT22;27566;50.930;5.328;2024-03-08T10:01:35;8.90;55.80
41884;DHT22;27566;50.930;5.328;2024-03-08T10:04:02;9.00;56.00
41884;DHT22;27566;50.930;5.328;2024-03-08T10:06:28;9.00;55.90
41884;DHT22;27566;50.930;5.328;2024-03-08T10:08:54;9.10;55.70
41884;DHT22;27566;50.930;5.328;2024-03-08T10:11:21;9.20;56.10
41884;DHT22;27566;50.930;5.328;2024-03-08T10:13:48;9.20;56.00
41884;DHT22;27566;50.930;5.328;2024-03-08T10:16:14;9.30;55.90
41884;DHT22;27566;50.930;5.328;2024-03-08T10:18:40;9.40;54.70
41884;DHT22;27566;50.930;5.328;2024-03-08T10:21:08;9.50;54.40
41884;DHT22;27566;50.930;5.328;2024-03-08T10:23:36;9.50;54.30
41884;DHT22;27566;50.930;5.328;2024-03-08T10:26:13;9.60;54.50
41884;DHT22;27566;50.930;5.328;2024-03-08T10:28:45;9.60;54.90
41884;DHT22;27566;50.930;5.328;2024-03-08T10:31:11;9.70;54.20
41884;DHT22;27566;50.930;5.328;2024-03-08T10:33:37;9.80;54.20
41884;DHT22;27566;50.930;5.328;2024-03-08T10:36:07;9.90;53.40
41884;DHT22;27566;50.930;5.328;2024-03-08T10:38:37;9.90;53.60
41884;DHT22;27566;50.930;5.328;2024-03-08T10:41:05;9.90;53.30
41884;DHT22;27566;50.930;5.328;2024-03-08T10:49:30;10.10;53.90
41884;DHT22;27566;50.930;5.328;2024-03-08T10:51:57;10.00;52.90
41884;DHT22;27566;50.930;5.328;2024-03-08T10:54:26;10.20;53.10
41884;DHT22;27566;50.930;5.328;2024-03-08T10:56:52;10.30;52.90
41884;DHT22;27566;50.930;5.328;2024-03-08T10:59:19;10.30;52.70
41884;DHT22;27566;50.930;5.328;2024-03-08T11:01:46;10.30;52.80
41884;DHT22;27566;50.930;5.328;2024-03-08T11:04:12;10.50;53.20
41884;DHT22;27566;50.930;5.328;2024-03-08T11:09:33;10.50;52.60
41884;DHT22;27566;50.930;5.328;2024-03-08T11:14:49;10.50;52.90
41884;DHT22;27566;50.930;5.328;2024-03-08T11:20:16;10.70;52.40
41884;DHT22;27566;50.930;5.328;2024-03-08T11:22:49;10.80;52.00
41884;DHT22;27566;50.930;5.328;2024-03-08T11:25:42;10.80;51.70
41884;DHT22;27566;50.930;5.328;2024-03-08T11:28:17;10.90;52.20
41884;DHT22;27566;50.930;5.328;2024-03-08T11:30:45;10.90;51.90
41884;DHT22;27566;50.930;5.328;2024-03-08T11:33:15;11.00;51.90
41884;DHT22;27566;50.930;5.328;2024-03-08T11:35:42;11.10;51.70
41884;DHT22;27566;50.930;5.328;2024-03-08T11:38:11;11.10;52.10
41884;DHT22;27566;50.930;5.328;2024-03-08T11:40:39;11.20;52.00
41884;DHT22;27566;50.930;5.328;2024-03-08T11:43:05;11.20;51.30
41884;DHT22;27566;50.930;5.328;2024-03-08T11:45:34;11.30;51.30
41884;DHT22;27566;50.930;5.328;2024-03-08T11:48:03;11.40;50.90
41884;DHT22;27566;50.930;5.328;2024-03-08T11:50:29;11.30;51.20
41884;DHT22;27566;50.930;5.328;2024-03-08T11:53:04;11.40;50.90
41884;DHT22;27566;50.930;5.328;2024-03-08T11:55:33;11.40;51.30
41884;DHT22;27566;50.930;5.328;2024-03-08T11:58:02;11.50;51.20
41884;DHT22;27566;50.930;5.328;2024-03-08T12:00:28;11.60;50.40
41884;DHT22;27566;50.930;5.328;2024-03-08T12:03:05;11.60;50.40
41884;DHT22;27566;50.930;5.328;2024-03-08T12:05:32;11.70;50.30
41884;DHT22;27566;50.930;5.328;2024-03-08T12:07:59;11.70;50.80
41884;DHT22;27566;50.930;5.328;2024-03-08T12:10:26;11.70;50.80
41884;DHT22;27566;50.930;5.328;2024-03-08T12:12:54;11.80;50.70
41884;DHT22;27566;50.930;5.328;2024-03-08T12:15:22;11.90;50.40
41884;DHT22;27566;50.930;5.328;2024-03-08T12:17:51;12.00;50.20
41884;DHT22;27566;50.930;5.328;2024-03-08T12:20:19;12.00;49.60
41884;DHT22;27566;50.930;5.328;2024-03-08T12:22:47;12.10;49.40
41884;DHT22;27566;50.930;5.328;2024-03-08T12:25:15;12.10;49.70
41884;DHT22;27566;50.930;5.328;2024-03-08T12:27:43;12.20;49.70
41884;DHT22;27566;50.930;5.328;2024-03-08T12:32:59;12.30;49.20
41884;DHT22;27566;50.930;5.328;2024-03-08T12:35:29;12.30;49.40
41884;DHT22;27566;50.930;5.328;2024-03-08T12:37:58;12.30;49.00
41884;DHT22;27566;50.930;5.328;2024-03-08T12:40:31;12.40;49.40
41884;DHT22;27566;50.930;5.328;2024-03-08T12:42:59;12.40;49.40
41884;DHT22;27566;50.930;5.328;2024-03-08T12:45:25;12.40;49.10
41884;DHT22;27566;50.930;5.328;2024-03-08T12:47:55;12.50;48.50
41884;DHT22;27566;50.930;5.328;2024-03-08T12:50:22;12.50;48.90
41884;DHT22;27566;50.930;5.328;2024-03-08T12:52:48;12.60;48.50
41884;DHT22;27566;50.930;5.328;2024-03-08T12:55:15;12.70;48.20
41884;DHT22;27566;50.930;5.328;2024-03-08T12:57:42;12.70;48.30
41884;DHT22;27566;50.930;5.328;2024-03-08T13:00:09;12.70;48.90
41884;DHT22;27566;50.930;5.328;2024-03-08T13:02:49;12.70;49.00
41884;DHT22;27566;50.930;5.328;2024-03-08T13:05:17;12.80;48.40
41884;DHT22;27566;50.930;5.328;2024-03-08T13:07:43;12.90;48.40
41884;DHT22;27566;50.930;5.328;2024-03-08T13:10:15;13.00;48.20
41884;DHT22;27566;50.930;5.328;2024-03-08T13:12:44;13.00;47.40
41884;DHT22;27566;50.930;5.328;2024-03-08T13:15:17;13.00;47.90
41884;DHT22;27566;50.930;5.328;2024-03-08T13:17:49;13.00;47.70
41884;DHT22;27566;50.930;5.328;2024-03-08T13:20:15;13.10;47.90
41884;DHT22;27566;50.930;5.328;2024-03-08T13:22:45;13.10;47.10
41884;DHT22;27566;50.930;5.328;2024-03-08T13:25:12;13.20;47.20
41884;DHT22;27566;50.930;5.328;2024-03-08T13:27:42;13.10;47.30
41884;DHT22;27566;50.930;5.328;2024-03-08T13:30:14;13.10;47.30
41884;DHT22;27566;50.930;5.328;2024-03-08T13:32:44;13.20;46.90
41884;DHT22;27566;50.930;5.328;2024-03-08T13:35:11;13.20;46.90
41884;DHT22;27566;50.930;5.328;2024-03-08T13:37:42;13.20;46.80
41884;DHT22;27566;50.930;5.328;2024-03-08T13:40:10;13.20;46.70
41884;DHT22;27566;50.930;5.328;2024-03-08T13:42:41;13.30;46.60
41884;DHT22;27566;50.930;5.328;2024-03-08T13:45:10;13.30;46.90
41884;DHT22;27566;50.930;5.328;2024-03-08T13:47:37;13.30;46.90
41884;DHT22;27566;50.930;5.328;2024-03-08T13:50:05;13.40;46.60
41884;DHT22;27566;50.930;5.328;2024-03-08T13:52:33;13.50;46.70
41884;DHT22;27566;50.930;5.328;2024-03-08T13:55:02;13.50;46.60
41884;DHT22;27566;50.930;5.328;2024-03-08T13:57:28;13.60;46.60
41884;DHT22;27566;50.930;5.328;2024-03-08T13:59:54;13.60;46.30
41884;DHT22;27566;50.930;5.328;2024-03-08T14:02:20;13.60;46.00
41884;DHT22;27566;50.930;5.328;2024-03-08T14:04:48;13.60;45.90
41884;DHT22;27566;50.930;5.328;2024-03-08T14:07:15;13.60;46.00
41884;DHT22;27566;50.930;5.328;2024-03-08T14:09:41;13.60;46.00
41884;DHT22;27566;50.930;5.328;2024-03-08T14:12:09;13.60;45.60
41884;DHT22;27566;50.930;5.328;2024-03-08T14:14:35;13.60;45.90
41884;DHT22;27566;50.930;5.328;2024-03-08T14:17:01;13.60;45.30
41884;DHT22;27566;50.930;5.328;2024-03-08T14:19:28;13.60;45.90
41884;DHT22;27566;50.930;5.328;2024-03-08T14:21:56;13.60;46.00
41884;DHT22;27566;50.930;5.328;2024-03-08T14:24:25;13.60;45.90
41884;DHT22;27566;50.930;5.328;2024-03-08T14:26:51;13.60;45.80
41884;DHT22;27566;50.930;5.328;2024-03-08T14:29:17;13.60;45.60
41884;DHT22;27566;50.930;5.328;2024-03-08T14:31:47;13.60;45.20
41884;DHT22;27566;50.930;5.328;2024-03-08T14:34:13;13.60;45.70
41884;DHT22;27566;50.930;5.328;2024-03-08T14:36:40;13.60;45.60
41884;DHT22;27566;50.930;5.328;2024-03-08T14:39:06;13.60;46.50
41884;DHT22;27566;50.930;5.328;2024-03-08T14:41:33;13.60;45.70
41884;DHT22;27566;50.930;5.328;2024-03-08T14:43:59;13.60;45.60
41884;DHT22;27566;50.930;5.328;2024-03-08T14:46:25;13.70;45.50
41884;DHT22;27566;50.930;5.328;2024-03-08T14:48:52;13.60;45.90
41884;DHT22;27566;50.930;5.328;2024-03-08T14:51:19;13.60;45.70
41884;DHT22;27566;50.930;5.328;2024-03-08T14:53:48;13.60;45.50
41884;DHT22;27566;50.930;5.328;2024-03-08T14:56:15;13.70;45.80
41884;DHT22;27566;50.930;5.328;2024-03-08T14:58:45;13.70;45.70
41884;DHT22;27566;50.930;5.328;2024-03-08T15:01:23;13.60;45.90
41884;DHT22;27566;50.930;5.328;2024-03-08T15:03:53;13.70;45.30
41884;DHT22;27566;50.930;5.328;2024-03-08T15:06:20;13.60;46.60
41884;DHT22;27566;50.930;5.328;2024-03-08T15:08:47;12.30;44.80
41884;DHT22;27566;50.930;5.328;2024-03-08T15:11:13;13.60;46.00
41884;DHT22;27566;50.930;5.328;2024-03-08T15:13:48;13.60;45.60
41884;DHT22;27566;50.930;5.328;2024-03-08T15:16:17;13.60;45.60
41884;DHT22;27566;50.930;5.328;2024-03-08T15:18:44;13.60;45.40
41884;DHT22;27566;50.930;5.328;2024-03-08T15:21:14;13.70;45.50
41884;DHT22;27566;50.930;5.328;2024-03-08T15:23:45;13.70;45.40
41884;DHT22;27566;50.930;5.328;2024-03-08T15:26:20;13.80;44.70
41884;DHT22;27566;50.930;5.328;2024-03-08T15:28:46;13.70;44.90
41884;DHT22;27566;50.930;5.328;2024-03-08T15:31:14;13.70;44.60
41884;DHT22;27566;50.930;5.328;2024-03-08T15:33:41;13.70;44.60
41884;DHT22;27566;50.930;5.328;2024-03-08T15:36:11;13.70;44.20
41884;DHT22;27566;50.930;5.328;2024-03-08T15:38:40;13.60;45.10
41884;DHT22;27566;50.930;5.328;2024-03-08T15:41:06;13.60;44.90
41884;DHT22;27566;50.930;5.328;2024-03-08T15:43:35;13.60;44.60
41884;DHT22;27566;50.930;5.328;2024-03-08T15:46:03;13.60;44.80
41884;DHT22;27566;50.930;5.328;2024-03-08T15:48:31;13.30;44.60
41884;DHT22;27566;50.930;5.328;2024-03-08T15:50:57;13.50;45.10
41884;DHT22;27566;50.930;5.328;2024-03-08T15:53:23;13.50;45.30
41884;DHT22;27566;50.930;5.328;2024-03-08T15:55:49;13.50;45.20
41884;DHT22;27566;50.930;5.328;2024-03-08T15:58:15;13.50;44.90
41884;DHT22;27566;50.930;5.328;2024-03-08T16:00:41;13.50;44.90
41884;DHT22;27566;50.930;5.328;2024-03-08T16:03:14;13.50;44.80
41884;DHT22;27566;50.930;5.328;2024-03-08T16:05:44;13.40;44.90
41884;DHT22;27566;50.930;5.328;2024-03-08T16:08:14;13.40;45.10
41884;DHT22;27566;50.930;5.328;2024-03-08T16:10:45;13.30;45.30
41884;DHT22;27566;50.930;5.328;2024-03-08T16:13:17;13.30;45.20
41884;DHT22;27566;50.930;5.328;2024-03-08T16:15:43;13.20;45.50
41884;DHT22;27566;50.930;5.328;2024-03-08T16:18:11;13.20;45.50
41884;DHT22;27566;50.930;5.328;2024-03-08T16:20:38;13.20;45.50
41884;DHT22;27566;50.930;5.328;2024-03-08T16:23:03;13.10;45.20
41884;DHT22;27566;50.930;5.328;2024-03-08T16:25:30;12.90;45.40
41884;DHT22;27566;50.930;5.328;2024-03-08T16:27:56;13.00;45.90
41884;DHT22;27566;50.930;5.328;2024-03-08T16:30:22;13.00;46.30
41884;DHT22;27566;50.930;5.328;2024-03-08T16:32:49;12.90;46.20
41884;DHT22;27566;50.930;5.328;2024-03-08T16:35:18;12.90;46.50
41884;DHT22;27566;50.930;5.328;2024-03-08T16:37:44;12.90;46.40
41884;DHT22;27566;50.930;5.328;2024-03-08T16:40:10;12.80;46.20
41884;DHT22;27566;50.930;5.328;2024-03-08T16:42:50;12.90;46.60
41884;DHT22;27566;50.930;5.328;2024-03-08T16:45:23;12.70;46.80
41884;DHT22;27566;50.930;5.328;2024-03-08T16:47:49;12.70;46.70
41884;DHT22;27566;50.930;5.328;2024-03-08T16:50:20;12.70;46.70